AirNav   Air Wisconsin Up To $57,000 Bonus
 
 724 users online  

56FA University Hospital & Medical Center Heliport
Tamarac, Florida, USA

GOING TO TAMARAC?


FAA INFORMATION EFFECTIVE 07 NOVEMBER 2019

Location

FAA Identifier: 56FA
Lat/Long: 26-12-43.2800N 080-15-20.4900W
26-12.721333N 080-15.341500W
26.2120222,-80.2556917
(estimated)
Elevation: 12 ft. / 4 m (estimated)
From city: 1 mile W of TAMARAC, FL
Time zone: UTC -5 (UTC -4 during Daylight Saving Time)
Zip code: 33321

Heliport Operations

Heliport use: Private use. Permission required prior to landing
Activation date: 12/2015
Control tower: no
ARTCC: MIAMI CENTER
FSS: MIAMI FLIGHT SERVICE STATION
Attendance: UNATNDD
Wind indicator: yes
Segmented circle: yes

Heliport Communications

WX ASOS at FXE (5 nm E): PHONE 954-772-2537
WX ASOS at PMP (8 nm E): PHONE 954-783-3720
WX ASOS at FLL (10 nm SE): PHONE 954-359-7857
WX ASOS at HWO (13 nm S): PHONE 954-983-5904
WX AWOS-3 at BCT (13 nm NE): 121.125 (561-391-2696)
WX ASOS at OPF (18 nm S): 125.9 (305-681-4063)

Nearby radio navigation aids

VOR radial/distance  VOR name  Freq  Var
FLLr336/9.6FORT LAUDERDALE VOR/DME114.4006W
DHPr016/25.2DOLPHIN VORTAC113.9004W
VKZr353/28.1VIRGINIA KEY VOR/DME117.1004W
PBIr201/29.5PALM BEACH VORTAC115.7003W

Heliport Services

Runway Information

Helipad H1

Dimensions: 40 x 40 ft. / 12 x 12 m
Surface: concrete
Traffic pattern: leftleft

Heliport Ownership and Management from official FAA records

Ownership: Privately-owned
Owner: UNIVERSITY HOSPITAL, LTD
7201 UNIVERSITY DRIVE
TAMARAC, FL 33321
Manager: DANIEL HINDERLITER
7201 UNIVERSITY DRIVE
TAMARAC, FL 33321
Phone (954) 724-6661
ADDITIONAL CONTACT: JASON CUNNINGHAM JASON.CUNNINGHAM@HEAHEALTHCARE.COM

Additional Remarks

FOR CD CTC MIAMI APCH AT 305-869-5432.

Instrument Procedures

There are no published instrument procedures at 56FA.

Some nearby airports with instrument procedures:

KFXE - Fort Lauderdale Executive Airport (5 nm E)
KPMP - Pompano Beach Airpark (8 nm E)
KFLL - Fort Lauderdale/Hollywood International Airport (10 nm SE)
KHWO - North Perry Airport (13 nm S)
KBCT - Boca Raton Airport (13 nm NE)
KOPF - Miami-Opa Locka Executive Airport (18 nm S)
 
Loc | Ops | Rwys | IFR | FBO | Links
Com | Nav | Svcs | Stats | Notes
Aerial photo
No photo
 
Airport distance calculator
Flying to University Hospital & Medical Center Heliport? Find the distance to fly.

From to 56FA

Sunrise and sunset
Times for 15-Nov-2019
 Local
(UTC-5)
 Zulu
(UTC)
Morning civil twilight06:1611:16
Sunrise06:4111:41
Sunset17:3122:31
Evening civil twilight17:5522:55

Current date and time
Zulu (UTC)  16-Nov-2019 02:28:46
Local (UTC-5)  15-Nov-2019 21:28:46
 
METAR
KFXE 
4nm E 
160153Z 27004KT 10SM FEW100 22/22 A2989 RMK AO2 SLP125 T02220217
KPMP 
8nm E 
160153Z AUTO 27007KT 10SM FEW100 FEW110 23/21 A2989 RMK AO2 SLP124 T02280211
KFLL 
10nm SE 
160213Z 27007KT 10SM SCT007 SCT055 BKN110 22/22 A2989 RMK AO2 T02220222
KHWO 
13nm S 
160212Z AUTO 26003KT 10SM BKN008 BKN012 OVC080 23/22 A2992 RMK AO2 CIG 007V010 T02330217
KBCT 
13nm NE 
160147Z 27008KT 10SM FEW015 23/21 A2989
KOPF 
18nm S 
160153Z 28005KT 10SM BKN080 23/22 A2991 RMK AO2 SLP129 T02330222
TAF
KFXE 
4nm E 
152114Z 1521/1618 25010KT P6SM VCTS SCT020CB BKN035 BKN100 TEMPO 1521/1522 VRB12G22KT 4SM SHRA BKN020 BKN040 OVC100 FM160000 26008KT P6SM VCSH SCT030 BKN050 BKN120 FM161000 30009KT P6SM FEW030 SCT050 SCT120
KFLL 
10nm SE 
152356Z 1600/1706 VRB05KT 6SM -SHRA SCT035 BKN150 FM160600 31008KT P6SM SCT025 BKN100 FM161200 31012KT P6SM FEW030 SCT120 FM161600 33013G20KT P6SM FEW250 FM170000 32009KT P6SM FEW250
KOPF 
18nm S 
152114Z 1521/1618 26008KT P6SM VCTS SCT025CB BKN070 TEMPO 1521/1522 VRB12G22KT 4SM SHRA BKN020 OVC100 FM160000 27007KT P6SM VCSH SCT030 BKN050 BKN120 FM161000 31010KT P6SM FEW030 SCT050 SCT120
NOTAMs
Click for the latest NOTAMs
NOTAMs are issued by the DoD/FAA and will open in a separate window not controlled by AirNav.

 

 
 

Would you like to see your business listed on this page?

 If your business provides an interesting product or service to pilots, flight crews, aircraft, or users of the University Hospital & Medical Center Heliport, you should consider listing it here.  To start the listing process, click on the button below
 
Add a business
 

Other Pages about University Hospital & Medical Center Heliport

Update a link
 
Copyright © AirNav, LLC. All rights reserved. Privacy Policy  Contact